Time;durP1;ratioP1;P1;durP2;ratioP2;P2;SDS_P1;SDS_P2;PMS_P1;PMS_P2;Temp;Humidity;BMP_temperature;BMP_pressure;BME280_temperature;BME280_humidity;BME280_pressure;Samples;Min_cycle;Max_cycle;Signal;HPM_P1;HPM_P2
2021/03/21 00:01:38;;;;;;;5.30;3.80;;;17.80;53.40;;;;;;5054327;28;20032;-73
2021/03/21 00:04:04;;;;;;;8.63;4.57;;;17.70;53.30;;;;;;5054217;28;20053;-73
2021/03/21 00:06:30;;;;;;;6.72;4.15;;;17.70;53.40;;;;;;5054330;28;20571;-73
2021/03/21 00:08:55;;;;;;;6.38;4.70;;;17.70;53.40;;;;;;5053771;28;20108;-74
2021/03/21 00:11:22;;;;;;;7.43;5.13;;;17.70;53.40;;;;;;5054352;28;20041;-73
2021/03/21 00:13:48;;;;;;;7.15;4.82;;;17.60;53.20;;;;;;5054258;28;20024;-73
2021/03/21 00:16:14;;;;;;;8.30;5.18;;;17.60;53.10;;;;;;5054119;28;20025;-74
2021/03/21 00:18:41;;;;;;;7.00;5.20;;;17.60;53.10;;;;;;5054529;28;20013;-73
2021/03/21 00:21:10;;;;;;;6.55;4.60;;;17.60;53.10;;;;;;5054242;28;20025;-73
2021/03/21 00:23:36;;;;;;;6.35;4.82;;;17.50;53.10;;;;;;5053735;28;20029;-73
2021/03/21 00:26:03;;;;;;;6.55;4.93;;;17.50;53.10;;;;;;5054083;28;20029;-73
2021/03/21 00:28:31;;;;;;;6.78;5.38;;;17.50;53.10;;;;;;5052797;28;20549;-73
2021/03/21 00:30:58;;;;;;;8.73;5.32;;;17.40;53.10;;;;;;5035460;28;20033;-74
2021/03/21 00:33:27;;;;;;;8.23;5.32;;;17.40;53.20;;;;;;5053771;28;20033;-73
2021/03/21 00:35:54;;;;;;;6.65;5.03;;;17.40;53.20;;;;;;5053868;28;20024;-73
2021/03/21 00:38:29;;;;;;;6.22;4.65;;;17.40;53.20;;;;;;5053727;28;20071;-74
2021/03/21 00:40:56;;;;;;;7.40;5.15;;;17.40;53.30;;;;;;5035765;28;20032;-74
2021/03/21 00:43:22;;;;;;;6.55;4.63;;;17.30;53.30;;;;;;5053626;28;20025;-73
2021/03/21 00:45:48;;;;;;;6.90;5.28;;;17.30;53.30;;;;;;5053845;28;20051;-73
2021/03/21 00:48:28;;;;;;;6.35;5.20;;;17.30;53.30;;;;;;5053582;28;20025;-74
2021/03/21 00:50:54;;;;;;;7.47;4.95;;;17.30;53.40;;;;;;5053555;28;20094;-74
2021/03/21 00:53:20;;;;;;;6.85;5.15;;;17.30;53.50;;;;;;5053498;28;20103;-74
2021/03/21 00:55:47;;;;;;;6.68;5.18;;;17.20;53.60;;;;;;5053565;28;20159;-74
2021/03/21 00:58:13;;;;;;;5.70;4.38;;;17.20;53.60;;;;;;5053564;28;20028;-73
2021/03/21 01:00:42;;;;;;;6.93;4.95;;;17.20;53.70;;;;;;5053606;28;20032;-73
2021/03/21 01:03:08;;;;;;;6.85;5.38;;;17.20;53.80;;;;;;5053394;28;20032;-74
2021/03/21 01:05:41;;;;;;;9.38;5.63;;;17.10;53.80;;;;;;5053372;28;20125;-73
2021/03/21 01:08:15;;;;;;;7.25;4.95;;;17.10;53.80;;;;;;5052830;28;20053;-73
2021/03/21 01:10:41;;;;;;;6.47;4.97;;;17.10;53.80;;;;;;5053679;28;20036;-73
2021/03/21 01:13:07;;;;;;;7.95;5.72;;;17.10;53.80;;;;;;5053328;28;20059;-73
2021/03/21 01:15:32;;;;;;;6.78;5.38;;;17.10;53.80;;;;;;5052992;28;20024;-73
2021/03/21 01:17:58;;;;;;;7.15;5.57;;;17.00;53.80;;;;;;5052932;28;20096;-74
2021/03/21 01:20:27;;;;;;;7.20;5.40;;;17.00;53.80;;;;;;5053152;28;20430;-73
2021/03/21 01:22:53;;;;;;;7.07;5.35;;;17.00;53.80;;;;;;5052689;28;20035;-73
2021/03/21 01:25:21;;;;;;;7.68;5.25;;;17.00;53.80;;;;;;5052927;28;20095;-74
2021/03/21 01:27:46;;;;;;;7.68;5.45;;;17.00;53.90;;;;;;5034715;28;20063;-74
2021/03/21 01:30:13;;;;;;;7.45;5.60;;;17.00;53.90;;;;;;5052518;28;20048;-73
2021/03/21 01:32:38;;;;;;;7.07;5.25;;;16.90;53.90;;;;;;5052282;28;20045;-73
2021/03/21 01:35:06;;;;;;;8.27;6.07;;;17.00;54.00;;;;;;5052608;28;20024;-73
2021/03/21 01:37:32;;;;;;;9.50;6.78;;;16.90;54.00;;;;;;5034550;28;20036;-73
2021/03/21 01:39:58;;;;;;;7.20;5.60;;;16.90;54.10;;;;;;5051811;28;20025;-73
2021/03/21 01:42:25;;;;;;;6.55;4.95;;;16.90;54.10;;;;;;5052852;28;20033;-73
2021/03/21 01:44:54;;;;;;;8.15;5.93;;;16.90;54.10;;;;;;5052700;28;20049;-73
2021/03/21 01:47:36;;;;;;;7.10;5.43;;;16.80;54.10;;;;;;5052666;28;20017;-74
2021/03/21 01:50:43;;;;;;;8.32;5.60;;;16.80;54.10;;;;;;5034289;28;20032;-73
2021/03/21 01:53:10;;;;;;;9.32;6.40;;;16.80;54.10;;;;;;5052473;28;20033;-73
2021/03/21 01:55:36;;;;;;;8.02;6.00;;;16.80;54.20;;;;;;5052385;28;20029;-73
2021/03/21 01:58:02;;;;;;;9.07;5.97;;;16.80;54.10;;;;;;5052022;28;20047;-73
2021/03/21 02:00:28;;;;;;;7.88;5.78;;;16.80;54.20;;;;;;5051899;28;20489;-73
2021/03/21 02:02:53;;;;;;;10.23;6.35;;;16.80;54.20;;;;;;5052296;28;20063;-74
2021/03/21 02:05:19;;;;;;;8.00;6.30;;;16.70;54.20;;;;;;5052047;28;20485;-73
2021/03/21 02:08:03;;;;;;;9.18;6.13;;;16.70;54.30;;;;;;5052114;28;20488;-74
2021/03/21 02:10:46;;;;;;;9.00;5.95;;;16.70;54.30;;;;;;5052008;28;20615;-74
2021/03/21 02:13:15;;;;;;;8.23;6.15;;;16.70;54.40;;;;;;5050855;28;20037;-73
2021/03/21 02:15:53;;;;;;;9.88;6.35;;;16.70;54.30;;;;;;5051907;28;20074;-74
2021/03/21 02:18:43;;;;;;;10.90;6.82;;;16.60;54.50;;;;;;5052119;28;20162;-74
2021/03/21 02:21:21;;;;;;;9.85;7.20;;;16.70;54.60;;;;;;5050609;28;20071;-74
2021/03/21 02:24:08;;;;;;;9.50;6.90;;;16.60;54.60;;;;;;5052238;28;20033;-74
2021/03/21 02:26:49;;;;;;;9.15;6.97;;;16.60;54.50;;;;;;5051749;28;20032;-74
2021/03/21 02:29:21;;;;;;;10.70;7.38;;;16.60;54.60;;;;;;5051881;28;20033;-74
2021/03/21 02:31:55;;;;;;;10.35;7.13;;;16.60;54.70;;;;;;5050757;28;20409;-74
2021/03/21 02:34:27;;;;;;;10.27;7.00;;;16.60;54.70;;;;;;5051724;28;20208;-74
2021/03/21 02:37:33;;;;;;;10.02;6.90;;;16.60;54.70;;;;;;5033433;28;20025;-74
2021/03/21 02:40:39;;;;;;;10.13;6.45;;;16.50;54.60;;;;;;4973907;28;20030;-74
2021/03/21 02:43:35;;;;;;;10.02;7.38;;;16.50;54.80;;;;;;5033424;28;20029;-74
2021/03/21 02:46:07;;;;;;;10.38;7.15;;;16.50;54.80;;;;;;5051057;28;20115;-74
2021/03/21 02:48:38;;;;;;;10.15;7.10;;;16.50;54.70;;;;;;5033421;28;20041;-74
2021/03/21 02:51:26;;;;;;;10.60;7.68;;;16.50;54.60;;;;;;5033180;28;20025;-74
2021/03/21 02:54:10;;;;;;;10.75;7.45;;;16.40;54.80;;;;;;5033432;28;20021;-74
2021/03/21 02:56:39;;;;;;;10.95;8.27;;;16.50;54.90;;;;;;5051200;28;20036;-74
2021/03/21 02:59:10;;;;;;;10.70;7.47;;;16.40;54.80;;;;;;5051088;28;20052;-74
2021/03/21 03:01:43;;;;;;;11.40;9.05;;;16.40;54.90;;;;;;5051520;28;20072;-73
2021/03/21 03:04:23;;;;;;;12.45;8.38;;;16.40;55.10;;;;;;5051462;28;20997;-74
2021/03/21 03:06:55;;;;;;;12.90;8.60;;;16.30;55.00;;;;;;5050651;28;20056;-73
2021/03/21 03:09:36;;;;;;;13.13;9.20;;;16.40;55.20;;;;;;5050751;28;20537;-74
2021/03/21 03:12:17;;;;;;;13.48;9.15;;;16.30;55.10;;;;;;5051473;28;20037;-73
2021/03/21 03:14:43;;;;;;;12.93;9.23;;;16.30;55.10;;;;;;5051308;28;20077;-73
2021/03/21 03:17:20;;;;;;;16.30;10.23;;;16.30;55.70;;;;;;5051361;28;20021;-74
2021/03/21 03:20:05;;;;;;;13.38;9.07;;;16.30;55.20;;;;;;5051392;28;20029;-73
2021/03/21 03:22:44;;;;;;;12.00;9.23;;;16.30;55.80;;;;;;5051444;28;20021;-74
2021/03/21 03:25:30;;;;;;;12.93;9.90;;;16.20;55.50;;;;;;5050817;28;20025;-74
2021/03/21 03:28:06;;;;;;;12.10;8.88;;;16.20;55.50;;;;;;5051250;28;20028;-73
2021/03/21 03:30:35;;;;;;;;;;;16.20;55.60;;;;;;5051591;28;20060;-74
2021/03/21 03:33:00;;;;;;;14.35;10.02;;;16.20;55.60;;;;;;5050959;28;19908;-74
2021/03/21 03:35:26;;;;;;;13.98;9.57;;;16.10;55.70;;;;;;5051437;28;20550;-73
2021/03/21 03:37:52;;;;;;;11.38;8.90;;;16.10;55.60;;;;;;5051042;28;20538;-74
2021/03/21 03:40:18;;;;;;;14.63;9.68;;;16.10;55.70;;;;;;5051300;28;20557;-74
2021/03/21 03:42:59;;;;;;;14.48;10.13;;;16.10;55.70;;;;;;5050980;28;20017;-73
2021/03/21 03:45:35;;;;;;;13.32;9.88;;;16.10;55.70;;;;;;5050648;28;20082;-73
2021/03/21 03:48:26;;;;;;;12.10;9.05;;;16.00;55.80;;;;;;5050915;28;20109;-74
2021/03/21 03:50:58;;;;;;;14.68;9.77;;;16.00;55.90;;;;;;5050635;28;20048;-73
2021/03/21 03:53:41;;;;;;;14.48;10.38;;;16.00;56.10;;;;;;5033072;28;20040;-74
2021/03/21 03:56:12;;;;;;;14.05;10.70;;;16.00;56.20;;;;;;5050609;28;20033;-74
2021/03/21 03:59:07;;;;;;;12.20;9.35;;;15.90;57.00;;;;;;5050640;28;20037;-74
2021/03/21 04:01:47;;;;;;;14.77;10.18;;;16.00;56.40;;;;;;5050729;28;20032;-74
2021/03/21 04:04:47;;;;;;;15.10;10.10;;;16.00;56.40;;;;;;5052954;28;20029;-74
2021/03/21 04:07:25;;;;;;;13.70;9.75;;;15.90;56.40;;;;;;5054106;28;20388;-74
2021/03/21 04:09:59;;;;;;;12.43;8.55;;;16.00;56.50;;;;;;5054561;28;20024;-74
2021/03/21 04:12:28;;;;;;;13.48;9.57;;;15.90;56.60;;;;;;5036125;28;20036;-75
2021/03/21 04:15:15;;;;;;;12.85;8.85;;;15.90;56.70;;;;;;5054093;28;20492;-75
2021/03/21 04:17:50;;;;;;;13.27;9.30;;;15.90;56.70;;;;;;5054279;28;20385;-74
2021/03/21 04:20:39;;;;;;;11.95;7.88;;;15.90;56.70;;;;;;5054370;28;20052;-74
2021/03/21 04:23:13;;;;;;;14.27;9.50;;;15.90;56.70;;;;;;5053880;28;20028;-74
2021/03/21 04:25:44;;;;;;;13.35;9.25;;;15.90;56.70;;;;;;5054306;28;20014;-74
2021/03/21 04:28:21;;;;;;;15.50;9.38;;;15.90;56.80;;;;;;5053811;28;20440;-74
2021/03/21 04:30:58;;;;;;;14.50;10.05;;;15.90;56.80;;;;;;5053815;28;20021;-74
2021/03/21 04:33:29;;;;;;;14.80;9.55;;;15.90;56.80;;;;;;5036162;28;20396;-74
2021/03/21 04:36:00;;;;;;;15.60;10.07;;;15.90;56.90;;;;;;5054210;28;20400;-73
2021/03/21 04:38:33;;;;;;;13.15;9.73;;;15.90;56.90;;;;;;5053895;28;20025;-74
2021/03/21 04:41:01;;;;;;;13.73;9.40;;;15.90;56.90;;;;;;5054106;28;20040;-74
2021/03/21 04:43:39;;;;;;;14.45;9.65;;;15.80;56.90;;;;;;5053514;28;20021;-74
2021/03/21 04:46:33;;;;;;;13.95;9.35;;;15.90;57.00;;;;;;5053772;28;20500;-73
2021/03/21 04:48:59;;;;;;;14.50;9.55;;;15.80;57.10;;;;;;5053002;28;20048;-73
2021/03/21 04:51:30;;;;;;;12.35;9.40;;;15.80;57.20;;;;;;5035838;28;20060;-73
2021/03/21 04:53:55;;;;;;;12.95;9.07;;;15.80;57.30;;;;;;5053930;28;20104;-74
2021/03/21 04:56:40;;;;;;;14.60;9.45;;;15.80;57.20;;;;;;5053825;28;20052;-73
2021/03/21 04:59:34;;;;;;;11.73;8.88;;;15.80;57.30;;;;;;5053534;28;20048;-73
2021/03/21 05:02:17;;;;;;;12.73;8.85;;;15.80;57.40;;;;;;5042469;28;20550;-74
2021/03/21 05:04:58;;;;;;;14.10;9.40;;;15.80;57.40;;;;;;5053549;28;20044;-73
2021/03/21 05:07:39;;;;;;;11.73;8.00;;;15.80;57.40;;;;;;5053368;28;20435;-73
2021/03/21 05:10:30;;;;;;;13.90;9.43;;;15.80;57.40;;;;;;5053346;28;20028;-74
2021/03/21 05:13:07;;;;;;;15.55;9.57;;;15.80;57.50;;;;;;5052857;28;20041;-73
2021/03/21 05:15:51;;;;;;;12.05;9.13;;;15.80;57.50;;;;;;5052914;28;20028;-73
2021/03/21 05:18:38;;;;;;;12.35;9.35;;;15.80;57.50;;;;;;5053180;28;20036;-73
2021/03/21 05:21:28;;;;;;;14.63;9.32;;;15.80;57.50;;;;;;5053051;28;20021;-73
2021/03/21 05:24:11;;;;;;;14.05;10.13;;;15.80;57.60;;;;;;5053441;28;20017;-73
2021/03/21 05:27:03;;;;;;;13.43;9.18;;;15.80;57.60;;;;;;5052956;28;20070;-73
2021/03/21 05:29:58;;;;;;;12.45;9.05;;;15.80;57.60;;;;;;5052774;28;20028;-74
2021/03/21 05:32:25;;;;;;;14.48;9.02;;;15.80;57.60;;;;;;5053121;28;20091;-73
2021/03/21 05:34:53;;;;;;;13.35;9.95;;;15.80;57.70;;;;;;5052951;28;20098;-72
2021/03/21 05:37:31;;;;;;;13.85;9.48;;;15.80;57.70;;;;;;5052856;28;20108;-73
2021/03/21 05:40:27;;;;;;;11.07;8.88;;;15.80;57.80;;;;;;5053125;28;20382;-73
2021/03/21 05:43:02;;;;;;;11.55;9.40;;;15.80;57.90;;;;;;5052354;28;20032;-73
2021/03/21 05:45:46;;;;;;;11.82;9.05;;;15.80;57.90;;;;;;5052808;28;20052;-73
2021/03/21 05:48:22;;;;;;;12.07;8.82;;;15.80;57.80;;;;;;5052271;28;20021;-73
2021/03/21 05:51:15;;;;;;;13.10;9.00;;;15.80;57.90;;;;;;5052520;28;20025;-73
2021/03/21 05:53:59;;;;;;;12.43;8.80;;;15.80;57.90;;;;;;5052374;28;20036;-73
2021/03/21 05:56:42;;;;;;;11.80;8.52;;;15.80;57.90;;;;;;5052895;28;20025;-73
2021/03/21 05:59:26;;;;;;;12.00;8.63;;;15.80;58.00;;;;;;5052545;28;20028;-73
2021/03/21 06:02:15;;;;;;;10.13;8.05;;;15.80;58.10;;;;;;5051218;28;20176;-73
2021/03/21 06:05:14;;;;;;;10.20;8.30;;;15.80;58.00;;;;;;5052148;28;20033;-73
2021/03/21 06:07:51;;;;;;;12.82;8.23;;;15.80;58.00;;;;;;5052255;28;20108;-73
2021/03/21 06:10:37;;;;;;;10.88;8.15;;;15.80;58.10;;;;;;5034056;28;20495;-74
2021/03/21 06:13:40;;;;;;;12.98;8.75;;;15.80;58.10;;;;;;5051817;28;20033;-73
2021/03/21 06:16:53;;;;;;;10.82;7.68;;;15.80;58.20;;;;;;5052177;28;20048;-74
2021/03/21 06:19:39;;;;;;;12.25;8.45;;;15.80;58.20;;;;;;4980859;28;20035;-73
2021/03/21 06:22:24;;;;;;;9.82;7.63;;;15.70;58.20;;;;;;5037747;28;20124;-74
2021/03/21 06:25:32;;;;;;;9.60;7.20;;;15.70;58.20;;;;;;5033980;28;20099;-73
2021/03/21 06:28:31;;;;;;;12.25;7.78;;;15.70;58.30;;;;;;5051840;28;20029;-74
2021/03/21 06:31:29;;;;;;;10.60;7.35;;;15.70;58.40;;;;;;5052149;28;20025;-74
2021/03/21 06:34:11;;;;;;;9.52;7.00;;;15.70;58.40;;;;;;5037710;28;20037;-74
2021/03/21 06:37:07;;;;;;;8.10;6.82;;;15.70;58.40;;;;;;5051900;28;20100;-74
2021/03/21 06:39:41;;;;;;;8.80;6.88;;;15.70;58.40;;;;;;5051726;28;20028;-74
2021/03/21 06:42:28;;;;;;;10.30;7.25;;;15.70;58.50;;;;;;5051793;28;20032;-73
2021/03/21 06:45:24;;;;;;;8.93;6.75;;;15.70;58.50;;;;;;5051648;28;20032;-74
2021/03/21 06:48:20;;;;;;;10.63;7.50;;;15.70;58.50;;;;;;5049952;28;20078;-74
2021/03/21 06:50:57;;;;;;;10.57;6.70;;;15.70;58.60;;;;;;5050709;28;20275;-78
2021/03/21 06:53:23;;;;;;;9.93;6.75;;;15.80;58.70;;;;;;5051913;28;20083;-73
2021/03/21 06:55:56;;;;;;;8.70;6.72;;;15.70;58.60;;;;;;5051301;28;20029;-74
2021/03/21 06:58:53;;;;;;;9.52;6.43;;;15.70;58.70;;;;;;5050833;28;20044;-74
2021/03/21 07:01:27;;;;;;;14.52;7.45;;;15.80;59.20;;;;;;5049674;28;20020;-74
2021/03/21 07:04:05;;;;;;;11.18;6.25;;;15.90;61.60;;;;;;5047910;28;20120;-74
2021/03/21 07:06:48;;;;;;;13.15;6.28;;;16.00;60.80;;;;;;5032863;28;20017;-74
2021/03/21 07:09:45;;;;;;;7.18;4.80;;;16.30;60.30;;;;;;5050025;28;20120;-73
2021/03/21 07:12:11;;;;;;;;;;;16.60;59.90;;;;;;5030651;28;20038;-74
2021/03/21 07:15:07;;;;;;;7.57;4.07;;;16.90;59.70;;;;;;5049750;28;19915;-74
2021/03/21 07:17:54;;;;;;;5.32;3.75;;;17.00;59.20;;;;;;5050059;28;20251;-74
2021/03/21 07:20:22;;;;;;;7.05;4.00;;;17.20;59.00;;;;;;5049243;28;20029;-74
2021/03/21 07:23:17;;;;;;;8.70;4.38;;;17.40;58.60;;;;;;5056669;28;20017;-74
2021/03/21 07:25:56;;;;;;;6.60;3.20;;;17.60;58.40;;;;;;5047342;28;20127;-74
2021/03/21 07:28:50;;;;;;;6.40;3.35;;;17.80;58.70;;;;;;5050318;28;20082;-74
2021/03/21 07:31:34;;;;;;;6.43;3.35;;;18.00;57.90;;;;;;5049628;28;20048;-73
2021/03/21 07:34:09;;;;;;;7.82;2.83;;;18.20;58.00;;;;;;5051528;28;20092;-73
2021/03/21 07:36:47;;;;;;;6.07;2.78;;;18.40;57.60;;;;;;5050513;28;20021;-74
2021/03/21 07:39:28;;;;;;;5.43;2.60;;;18.40;57.40;;;;;;5054346;28;20104;-74
2021/03/21 07:42:05;;;;;;;4.88;2.22;;;18.50;57.30;;;;;;5040956;28;20479;-74
2021/03/21 07:45:05;;;;;;;6.13;2.05;;;18.50;57.20;;;;;;5054928;28;20031;-74
2021/03/21 07:47:45;;;;;;;6.45;2.60;;;18.60;57.10;;;;;;5042725;28;20481;-74
2021/03/21 07:50:19;;;;;;;5.47;2.92;;;18.70;56.90;;;;;;5052986;28;20048;-75
2021/03/21 07:53:14;;;;;;;5.88;2.33;;;18.80;56.60;;;;;;5054214;28;20037;-74
2021/03/21 07:55:53;;;;;;;4.35;2.00;;;18.90;56.40;;;;;;5053818;28;20028;-75
2021/03/21 07:58:44;;;;;;;5.20;1.80;;;19.00;56.20;;;;;;5053038;28;20040;-74
2021/03/21 08:01:10;;;;;;;3.33;1.73;;;19.00;56.00;;;;;;5035994;28;20037;-74
2021/03/21 08:03:44;;;;;;;4.63;2.00;;;19.10;55.80;;;;;;5036112;28;20033;-75
2021/03/21 08:06:20;;;;;;;2.70;1.73;;;19.20;55.60;;;;;;5053027;28;20029;-75
2021/03/21 08:08:49;;;;;;;;;;;19.30;55.50;;;;;;5053790;28;20040;-75
2021/03/21 08:11:18;;;;;;;3.63;1.60;;;19.40;55.30;;;;;;5049907;28;19913;-74
2021/03/21 08:13:50;;;;;;;4.43;1.63;;;19.40;55.20;;;;;;5045546;28;20041;-75
2021/03/21 08:16:43;;;;;;;4.50;1.80;;;19.40;55.00;;;;;;5049931;28;20032;-76
2021/03/21 08:19:14;;;;;;;4.38;1.52;;;19.50;54.80;;;;;;5048249;28;20040;-76
2021/03/21 08:21:40;;;;;;;3.22;1.38;;;19.60;54.70;;;;;;5048099;28;20036;-77
2021/03/21 08:24:15;;;;;;;3.45;1.60;;;19.60;54.50;;;;;;5052958;28;20035;-74
2021/03/21 08:26:44;;;;;;;3.28;1.25;;;19.70;54.20;;;;;;5052344;28;20032;-76
2021/03/21 08:29:20;;;;;;;4.20;1.30;;;19.70;54.00;;;;;;5053176;28;20563;-76
2021/03/21 08:32:05;;;;;;;3.92;1.38;;;19.90;53.70;;;;;;5043167;28;20044;-75
2021/03/21 08:34:45;;;;;;;4.47;1.48;;;19.90;53.60;;;;;;5034499;28;20024;-77
2021/03/21 08:37:22;;;;;;;2.55;1.10;;;20.00;53.40;;;;;;5034340;28;20029;-75
2021/03/21 08:39:55;;;;;;;7.05;1.98;;;19.90;52.90;;;;;;5051661;28;20116;-75
2021/03/21 08:42:26;;;;;;;5.45;1.90;;;19.80;52.70;;;;;;5048090;28;20032;-75
2021/03/21 08:45:03;;;;;;;4.63;1.83;;;19.70;52.50;;;;;;5052571;28;20111;-75
2021/03/21 08:47:29;;;;;;;3.50;1.58;;;19.70;52.30;;;;;;5052398;28;20090;-74
2021/03/21 08:49:58;;;;;;;6.88;1.27;;;19.70;52.10;;;;;;5044244;28;20416;-75
2021/03/21 08:52:41;;;;;;;6.35;1.50;;;19.60;52.10;;;;;;5048135;28;20033;-74
2021/03/21 08:55:24;;;;;;;4.10;1.27;;;19.70;52.10;;;;;;5043112;28;20040;-74
2021/03/21 08:57:50;;;;;;;6.40;1.83;;;19.80;51.90;;;;;;5052405;28;20489;-74
2021/03/21 09:00:15;;;;;;;4.55;1.20;;;19.80;51.70;;;;;;5033805;28;20036;-74
2021/03/21 09:02:41;;;;;;;4.35;1.15;;;19.90;51.40;;;;;;5043772;28;20032;-74
2021/03/21 09:05:12;;;;;;;5.50;1.33;;;19.90;51.40;;;;;;5033610;28;20028;-75
2021/03/21 09:07:56;;;;;;;4.03;1.30;;;19.90;51.40;;;;;;5041763;28;20029;-74
2021/03/21 09:10:21;;;;;;;6.40;1.30;;;19.90;51.20;;;;;;5051835;28;20037;-74
2021/03/21 09:12:55;;;;;;;3.70;1.20;;;19.90;51.40;;;;;;5052056;28;20044;-74
2021/03/21 09:15:57;;;;;;;4.35;1.13;;;19.90;51.30;;;;;;5047298;28;20028;-75
2021/03/21 09:18:30;;;;;;;5.03;0.90;;;20.00;51.50;;;;;;5046634;28;20087;-76
2021/03/21 09:21:02;;;;;;;4.05;1.20;;;20.00;51.40;;;;;;5051486;28;20036;-76
2021/03/21 09:23:38;;;;;;;5.15;1.27;;;20.00;51.40;;;;;;5051746;28;20029;-75
2021/03/21 09:26:13;;;;;;;7.25;1.45;;;20.00;51.40;;;;;;5050078;28;20056;-76
2021/03/21 09:28:43;;;;;;;4.10;1.30;;;20.10;51.40;;;;;;5050416;28;20025;-76
2021/03/21 09:31:12;;;;;;;5.25;1.30;;;20.10;51.30;;;;;;5052130;28;20037;-75
2021/03/21 09:33:45;;;;;;;7.43;1.52;;;20.10;51.10;;;;;;5045117;28;20076;-75
2021/03/21 09:36:47;;;;;;;5.03;1.10;;;20.20;51.30;;;;;;5051938;28;20029;-76
2021/03/21 09:39:30;;;;;;;6.22;1.08;;;20.20;51.20;;;;;;5051393;28;20129;-76
2021/03/21 09:41:57;;;;;;;2.88;0.85;;;20.20;51.10;;;;;;5051493;28;20087;-76
2021/03/21 09:44:32;;;;;;;3.63;0.90;;;20.20;51.10;;;;;;5051216;28;20025;-75
2021/03/21 09:47:12;;;;;;;7.82;1.00;;;20.30;51.10;;;;;;5033935;28;20025;-76
2021/03/21 09:49:59;;;;;;;7.05;1.35;;;20.20;51.40;;;;;;5051073;28;20648;-76
2021/03/21 09:52:59;;;;;;;4.95;1.15;;;20.20;51.00;;;;;;5051438;28;20556;-76
2021/03/21 09:55:42;;;;;;;7.35;1.30;;;20.30;50.90;;;;;;5051512;28;20025;-76
2021/03/21 09:58:26;;;;;;;4.47;1.00;;;20.30;51.10;;;;;;5033442;28;20028;-76
2021/03/21 10:01:15;;;;;;;4.35;0.93;;;20.30;51.10;;;;;;5050409;28;20044;-78
2021/03/21 10:03:44;;;;;;;6.32;1.20;;;20.30;51.00;;;;;;5022681;28;20064;-75
2021/03/21 10:06:21;;;;;;;4.45;1.10;;;20.40;51.30;;;;;;5051237;28;20545;-75
2021/03/21 10:09:00;;;;;;;4.82;1.00;;;20.40;51.20;;;;;;5050981;28;20481;-74
2021/03/21 10:11:25;;;;;;;4.80;0.88;;;20.50;51.30;;;;;;5049882;28;20036;-74
2021/03/21 10:13:51;;;;;;;6.13;0.95;;;20.50;51.10;;;;;;5047793;28;20031;-77
2021/03/21 10:16:31;;;;;;;3.63;0.80;;;20.50;50.70;;;;;;5045695;28;20112;-75
2021/03/21 10:19:07;;;;;;;6.32;1.42;;;20.50;50.70;;;;;;5050920;28;20040;-75
2021/03/21 10:21:41;;;;;;;8.63;1.23;;;20.50;50.70;;;;;;5051234;28;20025;-76
2021/03/21 10:24:11;;;;;;;4.65;1.15;;;20.50;50.90;;;;;;5051156;28;20388;-74
2021/03/21 10:26:57;;;;;;;4.10;0.70;;;20.50;50.80;;;;;;5051195;28;20024;-75
2021/03/21 10:29:22;;;;;;;3.58;0.93;;;20.50;50.40;;;;;;5051028;28;20025;-74
2021/03/21 10:31:48;;;;;;;7.05;1.15;;;20.50;50.50;;;;;;5050322;28;20029;-78
2021/03/21 10:34:13;;;;;;;4.53;1.00;;;20.50;50.40;;;;;;5051003;28;20075;-78
2021/03/21 10:36:39;;;;;;;7.57;1.30;;;20.50;50.60;;;;;;5050871;28;20518;-75
2021/03/21 10:39:25;;;;;;;9.05;1.55;;;20.60;50.40;;;;;;5050875;28;20545;-78
2021/03/21 10:42:14;;;;;;;4.95;1.02;;;20.60;50.30;;;;;;5020025;28;20048;-78
2021/03/21 10:44:39;;;;;;;6.45;1.15;;;20.60;50.40;;;;;;5050676;28;20079;-78
2021/03/21 10:47:11;;;;;;;4.57;0.88;;;20.70;50.50;;;;;;5033262;28;20112;-79
2021/03/21 10:49:57;;;;;;;4.80;0.80;;;20.70;49.80;;;;;;5050190;28;20021;-76
2021/03/21 10:52:36;;;;;;;4.00;1.23;;;20.80;50.00;;;;;;5050518;28;20037;-75
2021/03/21 10:55:14;;;;;;;4.25;0.80;;;20.80;50.10;;;;;;5050611;28;20032;-76
2021/03/21 10:57:49;;;;;;;3.90;0.93;;;20.80;49.90;;;;;;5050089;28;20452;-76
2021/03/21 11:00:25;;;;;;;5.30;1.08;;;20.80;50.20;;;;;;5050641;28;20052;-78
2021/03/21 11:02:51;;;;;;;;;;;20.70;50.50;;;;;;5050891;28;20108;-74
2021/03/21 11:05:44;;;;;;;5.30;1.00;;;20.80;50.50;;;;;;5050172;28;20440;-75
2021/03/21 11:08:13;;;;;;;2.88;0.73;;;20.80;50.50;;;;;;5048241;28;20053;-73
2021/03/21 11:10:44;;;;;;;5.30;0.93;;;20.80;50.40;;;;;;5050595;28;20025;-74
2021/03/21 11:13:15;;;;;;;4.53;0.98;;;20.90;50.50;;;;;;5052844;28;20037;-73
2021/03/21 11:15:45;;;;;;;6.72;0.90;;;20.90;50.50;;;;;;5054289;28;20064;-72
2021/03/21 11:18:26;;;;;;;5.15;1.15;;;20.90;50.70;;;;;;5054399;28;20072;-73
2021/03/21 11:21:03;;;;;;;3.63;0.95;;;20.90;50.70;;;;;;5054648;28;20099;-74
2021/03/21 11:23:33;;;;;;;3.78;1.35;;;21.00;50.20;;;;;;5054273;28;20104;-73
2021/03/21 11:25:59;;;;;;;6.63;1.30;;;21.00;49.80;;;;;;5053734;28;20208;-73
2021/03/21 11:28:36;;;;;;;3.97;1.08;;;21.00;49.70;;;;;;5053982;28;20548;-73
2021/03/21 11:31:07;;;;;;;3.88;0.80;;;21.00;49.80;;;;;;5054142;28;20068;-72
2021/03/21 11:33:39;;;;;;;6.05;0.85;;;20.90;49.70;;;;;;5054510;28;20079;-73
2021/03/21 11:36:29;;;;;;;3.67;0.88;;;21.00;49.80;;;;;;5054083;28;20493;-73
2021/03/21 11:38:55;;;;;;;2.67;0.75;;;21.00;49.90;;;;;;5053333;28;20059;-73
2021/03/21 11:41:37;;;;;;;5.00;1.42;;;20.90;49.70;;;;;;5054070;28;20437;-73
2021/03/21 11:44:19;;;;;;;5.25;0.90;;;21.00;49.60;;;;;;5054147;28;20025;-73
2021/03/21 11:46:46;;;;;;;5.88;0.90;;;21.10;49.50;;;;;;5053400;28;20096;-73
2021/03/21 11:49:12;;;;;;;7.13;1.33;;;21.10;49.70;;;;;;5053679;28;20025;-73
2021/03/21 11:51:39;;;;;;;6.13;1.08;;;21.10;49.90;;;;;;5053568;28;20033;-73
2021/03/21 11:54:06;;;;;;;8.45;1.48;;;21.00;49.70;;;;;;5053935;28;20098;-74
2021/03/21 11:56:45;;;;;;;12.27;1.80;;;20.80;49.50;;;;;;5053418;28;20115;-74
2021/03/21 11:59:19;;;;;;;5.43;1.35;;;20.80;49.80;;;;;;5053229;28;20049;-74
2021/03/21 12:01:48;;;;;;;6.93;1.40;;;21.00;49.30;;;;;;5053546;28;20136;-74
2021/03/21 12:04:24;;;;;;;9.18;1.08;;;21.10;49.10;;;;;;5053531;28;20021;-75
2021/03/21 12:06:52;;;;;;;7.03;1.25;;;21.20;49.00;;;;;;5053738;28;20029;-74
2021/03/21 12:09:39;;;;;;;6.47;1.15;;;21.20;48.70;;;;;;5053483;28;20075;-74
2021/03/21 12:12:51;;;;;;;5.00;1.35;;;21.20;48.70;;;;;;5053633;28;20044;-74
2021/03/21 12:15:23;;;;;;;7.53;1.63;;;21.20;48.80;;;;;;5047179;28;20025;-74
2021/03/21 12:18:05;;;;;;;5.10;1.55;;;21.20;48.80;;;;;;5053258;28;20024;-73
2021/03/21 12:20:42;;;;;;;10.82;1.45;;;21.20;48.60;;;;;;5052959;28;20033;-73
2021/03/21 12:23:28;;;;;;;3.70;1.20;;;21.20;48.60;;;;;;5053245;28;20025;-74
2021/03/21 12:26:06;;;;;;;4.53;1.48;;;21.20;48.70;;;;;;5034939;28;20529;-74
2021/03/21 12:28:34;;;;;;;5.70;1.20;;;21.20;48.50;;;;;;5053216;28;20029;-73
2021/03/21 12:31:12;;;;;;;3.97;1.83;;;21.20;48.80;;;;;;5053266;28;20488;-73
2021/03/21 12:33:39;;;;;;;7.05;1.58;;;21.10;48.90;;;;;;5052407;28;20040;-74
2021/03/21 12:36:08;;;;;;;6.50;1.27;;;21.00;48.90;;;;;;5053234;28;20021;-74
2021/03/21 12:38:36;;;;;;;5.82;1.50;;;20.90;48.80;;;;;;5053274;28;20025;-73
2021/03/21 12:41:41;;;;;;;4.53;1.10;;;20.90;49.00;;;;;;5052443;28;20043;-74
2021/03/21 12:44:16;;;;;;;4.00;0.93;;;20.80;49.10;;;;;;5052703;28;20506;-74
2021/03/21 12:47:04;;;;;;;3.28;1.00;;;20.70;49.20;;;;;;5052726;28;20111;-74
2021/03/21 12:49:35;;;;;;;5.32;1.30;;;20.70;49.30;;;;;;5052699;28;20056;-73
2021/03/21 12:52:07;;;;;;;7.20;1.38;;;20.70;49.50;;;;;;5034436;28;20045;-73
2021/03/21 12:54:35;;;;;;;5.43;1.50;;;20.60;49.50;;;;;;5052859;28;20105;-73
2021/03/21 12:57:00;;;;;;;4.53;1.45;;;20.50;49.60;;;;;;5052899;28;20063;-73
2021/03/21 12:59:26;;;;;;;3.83;0.98;;;20.50;49.70;;;;;;5052632;28;20401;-73
2021/03/21 13:01:52;;;;;;;3.65;0.95;;;20.40;49.80;;;;;;5052248;28;20067;-73
2021/03/21 13:04:18;;;;;;;4.68;1.23;;;20.40;49.70;;;;;;5052114;28;20079;-73
2021/03/21 13:06:44;;;;;;;4.25;1.10;;;20.40;49.80;;;;;;5041400;28;20034;-73
2021/03/21 13:09:10;;;;;;;4.28;1.10;;;20.30;49.80;;;;;;5052427;28;20128;-73
2021/03/21 13:11:37;;;;;;;5.60;1.65;;;20.30;49.80;;;;;;5052564;28;20057;-73
2021/03/21 13:14:04;;;;;;;5.20;1.20;;;20.30;49.90;;;;;;5052656;28;20040;-74
2021/03/21 13:16:30;;;;;;;5.47;1.00;;;20.20;49.90;;;;;;5052165;28;20397;-73
2021/03/21 13:18:55;;;;;;;8.48;1.35;;;20.10;49.90;;;;;;5052106;28;20025;-73
2021/03/21 13:21:22;;;;;;;5.03;1.58;;;20.10;50.10;;;;;;5052215;28;20491;-73
2021/03/21 13:23:48;;;;;;;7.30;1.85;;;20.00;50.20;;;;;;5051895;28;20096;-73
2021/03/21 13:26:14;;;;;;;7.20;1.77;;;19.90;50.20;;;;;;5052081;28;20044;-73
2021/03/21 13:28:40;;;;;;;6.57;1.48;;;19.90;50.20;;;;;;5051985;28;20114;-73
2021/03/21 13:31:06;;;;;;;5.32;1.15;;;19.90;50.40;;;;;;5051885;28;20021;-73
2021/03/21 13:33:34;;;;;;;6.32;1.55;;;19.80;50.30;;;;;;5047859;28;20460;-73